createdAt,value
2018-12-03T00:00:25.585Z,16.9
2018-12-03T00:03:58.814Z,11.74
2018-12-03T00:07:28.922Z,13.2
2018-12-03T00:10:59.392Z,11.62
2018-12-03T00:14:29.415Z,14.51
2018-12-03T00:17:59.509Z,14.05
2018-12-03T00:21:29.613Z,11.85
2018-12-03T00:24:59.657Z,12.76
2018-12-03T00:28:29.820Z,12.36
2018-12-03T00:32:00.462Z,14.11
2018-12-03T00:35:31.158Z,11.56
2018-12-03T00:39:01.231Z,13.19
2018-12-03T00:42:31.416Z,11.45
2018-12-03T00:46:01.611Z,19.29
2018-12-03T00:49:31.683Z,10.9
2018-12-03T00:53:01.717Z,10.54
2018-12-03T00:56:31.791Z,13.05
2018-12-03T01:00:02.814Z,12.2
2018-12-03T01:03:32.890Z,11.71
2018-12-03T01:07:03.182Z,13.91
2018-12-03T01:10:33.365Z,13.29
2018-12-03T01:14:03.699Z,11.18
2018-12-03T01:17:33.845Z,15.85
2018-12-03T01:21:04.222Z,11.55
2018-12-03T01:24:34.231Z,12.54
2018-12-03T01:28:04.534Z,15.82
2018-12-03T01:31:34.710Z,11.46
2018-12-03T01:35:06.392Z,11.39
2018-12-03T01:38:36.526Z,14.48
2018-12-03T01:42:06.573Z,12.2
2018-12-03T01:45:36.664Z,12.09
2018-12-03T01:49:06.768Z,14
2018-12-03T01:52:36.981Z,13.24
2018-12-03T01:56:07.085Z,12.5
2018-12-03T01:59:37.258Z,10.66
2018-12-03T02:00:16.648Z,13.2
2018-12-03T02:03:46.681Z,16.59
2018-12-03T02:07:16.975Z,9.91
2018-12-03T02:10:46.920Z,12.22
2018-12-03T02:14:17.013Z,10.19
2018-12-03T02:17:47.067Z,12.29
2018-12-03T02:21:17.190Z,10.97
2018-12-03T02:24:47.164Z,12.15
2018-12-03T02:28:17.233Z,14.45
2018-12-03T02:31:47.262Z,13.44
2018-12-03T02:35:17.356Z,13.01
2018-12-03T02:38:47.360Z,14.58
2018-12-03T02:42:17.493Z,13.38
2018-12-03T02:45:47.683Z,13.03
2018-12-03T02:49:17.671Z,14.4
2018-12-03T02:52:47.650Z,13.16
2018-12-03T02:56:17.638Z,11.82
2018-12-03T02:59:47.700Z,13.75
2018-12-03T03:03:17.727Z,12.35
2018-12-03T03:06:47.871Z,13.65
2018-12-03T03:10:18.155Z,13.9
2018-12-03T03:13:48.188Z,12.1
2018-12-03T03:17:18.260Z,12.23
2018-12-03T03:20:48.286Z,13.22
2018-12-03T03:24:18.439Z,13.95
2018-12-03T03:27:48.483Z,12.72
2018-12-03T03:31:18.528Z,14.62
2018-12-03T03:34:48.560Z,14.15
2018-12-03T03:38:18.644Z,12.56
2018-12-03T03:41:48.768Z,10.9
2018-12-03T03:45:20.331Z,11.95
2018-12-03T03:48:50.415Z,11.69
2018-12-03T03:52:20.439Z,12.88
2018-12-03T03:55:50.503Z,11.26
2018-12-03T03:59:20.578Z,12.99
2018-12-03T04:00:15.055Z,11.49
2018-12-03T04:03:45.149Z,18.51
2018-12-03T04:07:15.348Z,17.84
2018-12-03T04:10:45.584Z,14.59
2018-12-03T04:14:15.640Z,12.4
2018-12-03T04:17:45.674Z,13.4
2018-12-03T04:21:15.788Z,15.5
2018-12-03T04:24:45.881Z,13.92
2018-12-03T04:28:15.945Z,13.61
2018-12-03T04:31:45.949Z,13.39
2018-12-03T04:35:15.967Z,16.81
2018-12-03T04:38:45.997Z,14.26
2018-12-03T04:42:16.111Z,12.09
2018-12-03T04:45:46.128Z,16.23
2018-12-03T04:49:16.219Z,12.93
2018-12-03T04:52:46.492Z,13.65
2018-12-03T04:56:16.609Z,12.09
2018-12-03T04:59:46.743Z,11.29
2018-12-03T05:03:16.794Z,15.62
2018-12-03T05:06:46.918Z,12.93
2018-12-03T05:10:18.152Z,16.98
2018-12-03T05:13:48.374Z,13.84
2018-12-03T05:17:18.569Z,16.77
2018-12-03T05:20:48.682Z,17.57
2018-12-03T05:24:18.816Z,17.46
2018-12-03T05:27:48.970Z,20.04
2018-12-03T05:31:19.059Z,18.4
2018-12-03T05:34:49.008Z,15.9
2018-12-03T05:38:19.081Z,19.19
2018-12-03T05:41:49.085Z,17.93
2018-12-03T05:45:19.289Z,16.56
2018-12-03T05:48:49.472Z,12.09
2018-12-03T05:52:19.505Z,12.31
2018-12-03T05:55:49.531Z,11.79
2018-12-03T05:59:19.704Z,9.82
2018-12-03T06:00:16.673Z,12.59
2018-12-03T06:03:46.647Z,13.19
2018-12-03T06:07:16.821Z,11.66
2018-12-03T06:10:46.927Z,10.34
2018-12-03T06:14:17.198Z,12.2
2018-12-03T06:17:48.632Z,16.32
2018-12-03T06:21:18.776Z,21.17
2018-12-03T06:24:48.890Z,21.11
2018-12-03T06:28:18.993Z,14.64
2018-12-03T06:31:49.177Z,17.54
2018-12-03T06:35:19.592Z,15.93
2018-12-03T06:38:49.605Z,13.6
2018-12-03T06:42:19.829Z,11.86
2018-12-03T06:45:50.203Z,11.76
2018-12-03T06:49:20.218Z,10.72
2018-12-03T06:52:50.247Z,12.54
2018-12-03T06:56:20.291Z,10.98
2018-12-03T06:59:50.309Z,15.65
2018-12-03T07:03:20.355Z,12.74
2018-12-03T07:06:50.377Z,10.85
2018-12-03T07:10:21.192Z,11.89
2018-12-03T07:13:51.287Z,14.15
2018-12-03T07:17:21.539Z,11.4
2018-12-03T07:20:51.603Z,14.74
2018-12-03T07:24:21.747Z,14.09
2018-12-03T07:27:51.920Z,18.82
2018-12-03T07:31:21.971Z,14.79
2018-12-03T07:34:52.010Z,13.39
2018-12-03T07:38:22.383Z,11.68
2018-12-03T07:41:52.468Z,11.4
2018-12-03T07:45:23.061Z,14.01
2018-12-03T07:48:53.115Z,13.11
2018-12-03T07:52:23.179Z,16.2
2018-12-03T07:55:53.163Z,16.98
2018-12-03T07:59:23.424Z,15.42
2018-12-03T08:00:19.356Z,19.12
2018-12-03T08:03:49.430Z,102.35
2018-12-03T08:07:19.454Z,88.95
2018-12-03T08:10:51.328Z,94.02
2018-12-03T08:14:21.433Z,109.82
2018-12-03T08:17:54.026Z,109.8
2018-12-03T08:21:24.126Z,71.3
2018-12-03T08:24:54.134Z,91.64
2018-12-03T08:28:24.198Z,73.16
2018-12-03T08:31:54.196Z,87.41
2018-12-03T08:35:24.265Z,65.62
2018-12-03T08:38:54.290Z,23.04
2018-12-03T08:42:24.344Z,11.73
2018-12-03T08:45:57.227Z,10.39
2018-12-03T08:49:27.497Z,10.88
2018-12-03T08:52:57.646Z,9.51
2018-12-03T08:56:27.783Z,9.38
2018-12-03T08:59:57.894Z,7.4
2018-12-03T09:03:29.098Z,14.03
2018-12-03T09:06:59.082Z,12.01
2018-12-03T09:10:29.326Z,10.68
2018-12-03T09:13:59.350Z,17.31
2018-12-03T09:17:29.460Z,18.12
2018-12-03T09:20:59.958Z,21.48
2018-12-03T09:24:29.988Z,18.19
2018-12-03T09:28:00.106Z,21.64
2018-12-03T09:31:30.171Z,20.14
2018-12-03T09:35:02.399Z,20.71
2018-12-03T09:39:40.009Z,21.21
2018-12-03T09:43:10.071Z,25.69
2018-12-03T09:46:40.275Z,24.11
2018-12-03T09:50:14.759Z,27.64
2018-12-03T09:53:51.476Z,30.46
2018-12-03T09:57:21.537Z,23.32
2018-12-03T10:00:15.992Z,26.4
2018-12-03T10:03:46.067Z,21.86
2018-12-03T10:07:17.700Z,20.07
2018-12-03T10:10:49.844Z,20.56
2018-12-03T10:14:20.074Z,19.8
2018-12-03T10:17:50.142Z,21.66
2018-12-03T10:21:20.417Z,20.71
2018-12-03T10:24:50.494Z,20.23
2018-12-03T10:28:20.745Z,23.67
2018-12-03T10:31:50.851Z,16.56
2018-12-03T10:35:21.027Z,17.91
2018-12-03T10:38:51.090Z,19.44
2018-12-03T10:42:21.242Z,18.97
2018-12-03T10:45:51.305Z,20.15
2018-12-03T10:49:21.370Z,16.74
2018-12-03T10:52:51.664Z,18.23
2018-12-03T10:56:21.818Z,21.42
2018-12-03T10:59:53.243Z,19.6
2018-12-03T11:06:19.142Z,18.2
2018-12-03T11:09:49.275Z,15.04
2018-12-03T11:13:19.590Z,14.78
2018-12-03T11:16:49.858Z,17.52
2018-12-03T11:20:20.117Z,11.29
2018-12-03T11:23:50.344Z,14.41
2018-12-03T11:27:20.995Z,14.94
2018-12-03T11:30:52.843Z,13.75
2018-12-03T11:34:23.923Z,13.97
2018-12-03T11:38:30.305Z,10.6
2018-12-03T11:42:02.121Z,11.04
2018-12-03T11:45:32.195Z,13.2
2018-12-03T11:49:02.539Z,9.64
2018-12-03T11:52:32.983Z,10.14
2018-12-03T11:56:03.088Z,11.88
2018-12-03T11:59:33.231Z,10.85
2018-12-03T12:00:15.021Z,11.76
2018-12-03T12:03:45.224Z,11.91
2018-12-03T12:07:15.312Z,16.4
2018-12-03T12:10:45.382Z,10.56
2018-12-03T12:14:20.566Z,11.96
2018-12-03T12:17:50.793Z,12.74
2018-12-03T12:21:20.824Z,9.53
2018-12-03T12:24:51.155Z,11.14
2018-12-03T12:28:21.213Z,10.45
2018-12-03T12:31:51.708Z,9
2018-12-03T12:35:21.762Z,8.79
2018-12-03T12:38:51.921Z,9.38
2018-12-03T12:42:22.009Z,9.99
2018-12-03T12:45:57.083Z,14.5
2018-12-03T12:49:27.207Z,11.65
2018-12-03T12:52:57.220Z,11.46
2018-12-03T12:56:27.304Z,8.6
2018-12-03T12:59:57.388Z,14.57
2018-12-03T13:03:27.532Z,11.3
2018-12-03T13:06:57.696Z,14.23
2018-12-03T13:10:27.700Z,11.01
2018-12-03T13:13:57.921Z,19.99
2018-12-03T13:17:27.988Z,12.86
2018-12-03T13:20:58.102Z,16.93
2018-12-03T13:24:28.137Z,15.71
2018-12-03T13:27:58.562Z,15.97
2018-12-03T13:31:28.594Z,16.31
2018-12-03T13:34:58.659Z,21.01
2018-12-03T13:38:28.620Z,17.24
2018-12-03T13:41:58.658Z,17.62
2018-12-03T13:45:28.711Z,18.48
2018-12-03T13:48:58.862Z,17.21
2018-12-03T13:52:29.049Z,16.74
2018-12-03T13:55:59.143Z,20.29
2018-12-03T13:59:29.138Z,20.27
2018-12-03T14:00:19.417Z,21.14
2018-12-03T14:04:12.731Z,16.61
2018-12-03T14:07:53.313Z,18.48
2018-12-03T14:11:31.818Z,17.34
2018-12-03T14:17:20.896Z,18.79
2018-12-03T14:20:52.421Z,17.41
2018-12-03T14:24:22.437Z,18.35
2018-12-03T14:27:52.499Z,25.52
2018-12-03T14:31:22.903Z,19.65
2018-12-03T14:34:52.957Z,20.49
2018-12-03T14:38:23.103Z,21.25
2018-12-03T14:41:53.150Z,19.91
2018-12-03T14:45:23.340Z,19.12
2018-12-03T14:48:53.403Z,20.25
2018-12-03T14:52:23.462Z,21.3
2018-12-03T14:55:53.651Z,24.73
2018-12-03T14:59:23.816Z,23.25
2018-12-03T15:02:53.739Z,30.71
2018-12-03T15:06:23.824Z,32.89
2018-12-03T15:09:53.888Z,32.56
2018-12-03T15:13:23.953Z,50.39
2018-12-03T15:16:53.946Z,59.16
2018-12-03T15:20:24.060Z,40.9
2018-12-03T15:23:54.094Z,40.86
2018-12-03T15:27:24.282Z,45.45
2018-12-03T15:30:54.352Z,89.46
2018-12-03T15:34:24.776Z,86.35
2018-12-03T15:37:54.823Z,82.81
2018-12-03T15:41:24.865Z,65.19
2018-12-03T15:44:54.828Z,58.6
2018-12-03T15:48:24.905Z,57.12
2018-12-03T15:51:54.936Z,61.88
2018-12-03T15:55:24.980Z,52.79
2018-12-03T15:58:55.084Z,49.27
2018-12-03T16:00:13.996Z,62.08
2018-12-03T16:03:44.151Z,40.99
2018-12-03T16:07:14.380Z,45.31
2018-12-03T16:10:44.715Z,57.58
2018-12-03T16:14:14.788Z,45.91
2018-12-03T16:17:44.962Z,49.7
2018-12-03T16:21:14.976Z,62.71
2018-12-03T16:24:45.133Z,46.81
2018-12-03T16:28:15.208Z,52.81
2018-12-03T16:31:45.338Z,52.5
2018-12-03T16:35:15.712Z,44.58
2018-12-03T16:38:45.907Z,42.45
2018-12-03T16:42:15.871Z,41.06
2018-12-03T16:45:45.985Z,37.6
2018-12-03T16:49:16.036Z,33.02
2018-12-03T16:52:46.134Z,29.93
2018-12-03T16:56:16.217Z,33.86
2018-12-03T16:59:46.653Z,34.91
2018-12-03T17:03:16.765Z,154.54
2018-12-03T17:06:46.909Z,132.05
2018-12-03T17:10:17.823Z,80.12
2018-12-03T17:13:47.957Z,53.78
2018-12-03T17:17:17.984Z,39.08
2018-12-03T17:21:08.774Z,71.34
2018-12-03T17:24:40.130Z,95.85
2018-12-03T17:28:10.152Z,62.07
2018-12-03T17:31:40.177Z,54.45
2018-12-03T17:35:10.311Z,45.78
2018-12-03T17:38:40.639Z,42.29
2018-12-03T17:42:10.730Z,38.4
2018-12-03T17:45:40.803Z,33.69
2018-12-03T17:49:10.877Z,33.96
2018-12-03T17:52:40.852Z,24.62
2018-12-03T17:56:11.205Z,27.79
2018-12-03T17:59:41.260Z,23.89
2018-12-03T18:00:13.838Z,30.91
2018-12-03T18:03:43.957Z,17.66
2018-12-03T18:07:13.956Z,18.94
2018-12-03T18:10:44.110Z,16.25
2018-12-03T18:14:14.132Z,14.57
2018-12-03T18:17:44.169Z,14.91
2018-12-03T18:21:14.342Z,16.55
2018-12-03T18:24:44.437Z,17.18
2018-12-03T18:28:14.491Z,14.36
2018-12-03T18:31:44.515Z,17.17
2018-12-03T18:35:14.739Z,12.19
2018-12-03T18:38:45.003Z,11.51
2018-12-03T18:42:14.997Z,11.38
2018-12-03T18:45:44.979Z,30.02
2018-12-03T18:49:33.824Z,32.9
2018-12-03T18:53:14.348Z,61.96
2018-12-03T18:56:44.413Z,89.84
2018-12-03T19:00:14.622Z,213.35
2018-12-03T19:03:44.681Z,31.19
2018-12-03T19:07:14.865Z,14
2018-12-03T19:10:44.948Z,13.38
2018-12-03T19:14:15.132Z,8.39
2018-12-03T19:17:45.167Z,12.5
2018-12-03T19:21:15.301Z,8
2018-12-03T19:24:45.364Z,10.91
2018-12-03T19:28:15.400Z,16.19
2018-12-03T19:31:45.441Z,13.51
2018-12-03T19:35:15.486Z,15.99
2018-12-03T19:38:45.750Z,17.56
2018-12-03T19:42:15.814Z,10.91
2018-12-03T19:45:46.565Z,11.51
2018-12-03T19:49:17.087Z,12
2018-12-03T19:52:49.467Z,11.47
2018-12-03T19:56:19.549Z,10.53
2018-12-03T19:59:51.523Z,7.29
2018-12-03T20:00:13.823Z,11
2018-12-03T20:03:43.857Z,14.54
2018-12-03T20:07:13.931Z,16.85
2018-12-03T20:10:44.075Z,12.01
2018-12-03T20:14:14.179Z,12.82
2018-12-03T20:17:44.283Z,10.41
2018-12-03T20:21:18.486Z,16.34
2018-12-03T20:24:48.620Z,12.34
2018-12-03T20:28:24.712Z,12.55
2018-12-03T20:32:32.534Z,10.78
2018-12-03T20:36:33.274Z,9.38
2018-12-03T20:40:22.203Z,12.11
2018-12-03T20:43:54.917Z,13.61
2018-12-03T20:47:28.658Z,13.5
2018-12-03T20:51:05.987Z,13.06
2018-12-03T20:54:35.988Z,4.94
2018-12-03T20:58:06.212Z,10.65
2018-12-03T21:01:40.046Z,11.4
2018-12-03T21:05:10.140Z,11.89
2018-12-03T21:08:40.210Z,12.11
2018-12-03T21:12:10.328Z,10.3
2018-12-03T21:15:40.389Z,10.39
2018-12-03T21:19:10.507Z,11.65
2018-12-03T21:22:40.789Z,16.09
2018-12-03T21:26:10.953Z,12.04
2018-12-03T21:29:41.077Z,11.78
2018-12-03T21:33:11.183Z,4.88
2018-12-03T21:36:41.285Z,13.96
2018-12-03T21:40:11.622Z,14.53
2018-12-03T21:43:41.733Z,8.27
2018-12-03T21:47:11.837Z,8.3
2018-12-03T21:50:42.040Z,14.07
2018-12-03T21:54:12.096Z,11.78
2018-12-03T21:57:42.689Z,10.85
2018-12-03T22:00:18.674Z,14.35
2018-12-03T22:03:48.743Z,14.34
2018-12-03T22:07:18.802Z,13.26
2018-12-03T22:10:48.916Z,14.12
2018-12-03T22:14:18.874Z,12.68
2018-12-03T22:17:48.964Z,14.05
2018-12-03T22:21:18.998Z,14.15
2018-12-03T22:24:49.151Z,6.99
2018-12-03T22:28:19.176Z,11.07
2018-12-03T22:31:49.279Z,13.57
2018-12-03T22:35:19.393Z,14.49
2018-12-03T22:38:49.570Z,10.88
2018-12-03T22:42:19.651Z,13.54
2018-12-03T22:45:49.675Z,10.99
2018-12-03T22:49:19.749Z,7.48
2018-12-03T22:52:49.918Z,10.94
2018-12-03T22:56:19.946Z,14.55
2018-12-03T22:59:50.170Z,14.88
2018-12-03T23:03:20.264Z,15.43
2018-12-03T23:06:50.368Z,17.04
2018-12-03T23:10:20.482Z,12.54
2018-12-03T23:13:50.558Z,12.16
2018-12-03T23:17:20.604Z,11.44
2018-12-03T23:20:50.718Z,14.99
2018-12-03T23:24:20.832Z,14.41
2018-12-03T23:27:50.961Z,7.92
2018-12-03T23:31:21.095Z,14.89
2018-12-03T23:34:51.178Z,6.21
2018-12-03T23:38:21.213Z,14.85
2018-12-03T23:41:51.366Z,12.56
2018-12-03T23:45:21.610Z,15.44
2018-12-03T23:48:51.714Z,13.75
2018-12-03T23:52:21.878Z,17.9
2018-12-03T23:55:52.042Z,14.66
2018-12-03T23:59:22.243Z,15.41
